sensor_id;sensor_type;location;lat;lon;timestamp;P1;durP1;ratioP1;P2;durP2;ratioP2
12556;SDS011;6344;49.932;8.308;2022-12-29T00:01:20;4.97;;;2.97;;
12556;SDS011;6344;49.932;8.308;2022-12-29T00:03:50;19.37;;;2.77;;
12556;SDS011;6344;49.932;8.308;2022-12-29T00:06:18;3.63;;;3.30;;
12556;SDS011;6344;49.932;8.308;2022-12-29T00:08:47;3.53;;;3.30;;
12556;SDS011;6344;49.932;8.308;2022-12-29T00:11:15;4.30;;;3.30;;
12556;SDS011;6344;49.932;8.308;2022-12-29T00:13:47;3.73;;;3.40;;
12556;SDS011;6344;49.932;8.308;2022-12-29T00:16:36;5.33;;;2.57;;
12556;SDS011;6344;49.932;8.308;2022-12-29T00:19:06;3.30;;;3.00;;
12556;SDS011;6344;49.932;8.308;2022-12-29T00:21:54;3.37;;;3.13;;
12556;SDS011;6344;49.932;8.308;2022-12-29T00:24:38;2.50;;;2.30;;
12556;SDS011;6344;49.932;8.308;2022-12-29T00:27:26;3.57;;;3.10;;
12556;SDS011;6344;49.932;8.308;2022-12-29T00:30:11;2.90;;;2.60;;
12556;SDS011;6344;49.932;8.308;2022-12-29T00:32:57;3.00;;;2.43;;
12556;SDS011;6344;49.932;8.308;2022-12-29T00:35:43;2.63;;;1.90;;
12556;SDS011;6344;49.932;8.308;2022-12-29T00:38:13;3.10;;;2.90;;
12556;SDS011;6344;49.932;8.308;2022-12-29T00:40:58;5.20;;;2.47;;
12556;SDS011;6344;49.932;8.308;2022-12-29T00:43:42;3.30;;;2.23;;
12556;SDS011;6344;49.932;8.308;2022-12-29T00:46:26;3.07;;;2.77;;
12556;SDS011;6344;49.932;8.308;2022-12-29T00:48:56;3.33;;;2.30;;
12556;SDS011;6344;49.932;8.308;2022-12-29T00:51:42;3.73;;;2.70;;
12556;SDS011;6344;49.932;8.308;2022-12-29T00:54:13;2.33;;;2.13;;
12556;SDS011;6344;49.932;8.308;2022-12-29T00:56:41;4.77;;;3.40;;
12556;SDS011;6344;49.932;8.308;2022-12-29T00:59:09;2.20;;;2.00;;
12556;SDS011;6344;49.932;8.308;2022-12-29T01:01:37;2.63;;;2.43;;
12556;SDS011;6344;49.932;8.308;2022-12-29T01:04:07;2.90;;;2.50;;
12556;SDS011;6344;49.932;8.308;2022-12-29T01:06:37;2.40;;;2.20;;
12556;SDS011;6344;49.932;8.308;2022-12-29T01:09:05;3.17;;;2.87;;
12556;SDS011;6344;49.932;8.308;2022-12-29T01:11:52;4.00;;;2.80;;
12556;SDS011;6344;49.932;8.308;2022-12-29T01:14:19;7.63;;;3.20;;
12556;SDS011;6344;49.932;8.308;2022-12-29T01:16:50;2.47;;;2.27;;
12556;SDS011;6344;49.932;8.308;2022-12-29T01:19:19;2.73;;;2.53;;
12556;SDS011;6344;49.932;8.308;2022-12-29T01:21:48;3.03;;;2.20;;
12556;SDS011;6344;49.932;8.308;2022-12-29T01:24:15;2.50;;;2.30;;
12556;SDS011;6344;49.932;8.308;2022-12-29T01:26:44;3.40;;;2.37;;
12556;SDS011;6344;49.932;8.308;2022-12-29T01:29:15;3.10;;;2.53;;
12556;SDS011;6344;49.932;8.308;2022-12-29T01:31:41;2.63;;;2.37;;
12556;SDS011;6344;49.932;8.308;2022-12-29T01:34:08;2.80;;;2.53;;
12556;SDS011;6344;49.932;8.308;2022-12-29T01:36:35;3.77;;;2.17;;
12556;SDS011;6344;49.932;8.308;2022-12-29T01:39:01;2.10;;;2.00;;
12556;SDS011;6344;49.932;8.308;2022-12-29T01:41:34;2.33;;;1.70;;
12556;SDS011;6344;49.932;8.308;2022-12-29T01:44:02;1.87;;;1.77;;
12556;SDS011;6344;49.932;8.308;2022-12-29T01:46:32;2.63;;;1.83;;
12556;SDS011;6344;49.932;8.308;2022-12-29T01:49:03;2.60;;;2.20;;
12556;SDS011;6344;49.932;8.308;2022-12-29T01:51:43;2.20;;;2.10;;
12556;SDS011;6344;49.932;8.308;2022-12-29T01:54:16;2.50;;;2.30;;
12556;SDS011;6344;49.932;8.308;2022-12-29T01:56:51;3.00;;;2.10;;
12556;SDS011;6344;49.932;8.308;2022-12-29T01:59:24;2.47;;;2.27;;
12556;SDS011;6344;49.932;8.308;2022-12-29T02:01:59;4.13;;;2.00;;
12556;SDS011;6344;49.932;8.308;2022-12-29T02:04:32;2.30;;;2.10;;
12556;SDS011;6344;49.932;8.308;2022-12-29T02:07:01;3.20;;;2.30;;
12556;SDS011;6344;49.932;8.308;2022-12-29T02:09:32;2.20;;;2.10;;
12556;SDS011;6344;49.932;8.308;2022-12-29T02:12:00;3.07;;;1.93;;
12556;SDS011;6344;49.932;8.308;2022-12-29T02:14:27;2.20;;;2.00;;
12556;SDS011;6344;49.932;8.308;2022-12-29T02:16:58;2.43;;;2.13;;
12556;SDS011;6344;49.932;8.308;2022-12-29T02:19:53;2.50;;;2.23;;
12556;SDS011;6344;49.932;8.308;2022-12-29T02:22:41;2.53;;;2.33;;
12556;SDS011;6344;49.932;8.308;2022-12-29T02:25:37;3.30;;;2.33;;
12556;SDS011;6344;49.932;8.308;2022-12-29T02:28:37;2.80;;;2.10;;
12556;SDS011;6344;49.932;8.308;2022-12-29T02:31:19;2.90;;;1.80;;
12556;SDS011;6344;49.932;8.308;2022-12-29T02:33:53;2.47;;;2.27;;
12556;SDS011;6344;49.932;8.308;2022-12-29T02:36:31;1.80;;;1.70;;
12556;SDS011;6344;49.932;8.308;2022-12-29T02:39:12;2.10;;;1.90;;
12556;SDS011;6344;49.932;8.308;2022-12-29T02:41:48;1.70;;;1.60;;
12556;SDS011;6344;49.932;8.308;2022-12-29T02:44:27;1.90;;;1.70;;
12556;SDS011;6344;49.932;8.308;2022-12-29T02:47:03;2.70;;;2.23;;
12556;SDS011;6344;49.932;8.308;2022-12-29T02:49:36;2.00;;;1.90;;
12556;SDS011;6344;49.932;8.308;2022-12-29T02:52:09;2.33;;;2.13;;
12556;SDS011;6344;49.932;8.308;2022-12-29T02:54:42;2.63;;;2.10;;
12556;SDS011;6344;49.932;8.308;2022-12-29T02:57:26;3.07;;;2.30;;
12556;SDS011;6344;49.932;8.308;2022-12-29T02:59:56;2.90;;;2.50;;
12556;SDS011;6344;49.932;8.308;2022-12-29T03:02:31;1.83;;;1.63;;
12556;SDS011;6344;49.932;8.308;2022-12-29T03:05:19;2.20;;;2.00;;
12556;SDS011;6344;49.932;8.308;2022-12-29T03:07:57;3.63;;;2.47;;
12556;SDS011;6344;49.932;8.308;2022-12-29T03:10:35;2.23;;;2.03;;
12556;SDS011;6344;49.932;8.308;2022-12-29T03:13:11;3.23;;;1.90;;
12556;SDS011;6344;49.932;8.308;2022-12-29T03:16:02;2.20;;;1.80;;
12556;SDS011;6344;49.932;8.308;2022-12-29T03:18:38;2.50;;;2.13;;
12556;SDS011;6344;49.932;8.308;2022-12-29T03:21:13;2.93;;;2.57;;
12556;SDS011;6344;49.932;8.308;2022-12-29T03:23:45;3.00;;;2.40;;
12556;SDS011;6344;49.932;8.308;2022-12-29T03:26:15;4.93;;;2.40;;
12556;SDS011;6344;49.932;8.308;2022-12-29T03:28:45;2.40;;;2.20;;
12556;SDS011;6344;49.932;8.308;2022-12-29T03:31:17;2.30;;;2.10;;
12556;SDS011;6344;49.932;8.308;2022-12-29T03:33:48;2.90;;;2.03;;
12556;SDS011;6344;49.932;8.308;2022-12-29T03:36:23;2.60;;;2.40;;
12556;SDS011;6344;49.932;8.308;2022-12-29T03:38:57;2.73;;;2.50;;
12556;SDS011;6344;49.932;8.308;2022-12-29T03:41:28;2.57;;;2.23;;
12556;SDS011;6344;49.932;8.308;2022-12-29T03:43:57;2.10;;;1.90;;
12556;SDS011;6344;49.932;8.308;2022-12-29T03:46:26;2.43;;;2.23;;
12556;SDS011;6344;49.932;8.308;2022-12-29T03:48:54;3.10;;;2.20;;
12556;SDS011;6344;49.932;8.308;2022-12-29T03:51:21;6.60;;;2.67;;
12556;SDS011;6344;49.932;8.308;2022-12-29T03:53:47;3.50;;;2.20;;
12556;SDS011;6344;49.932;8.308;2022-12-29T03:56:16;3.13;;;2.20;;
12556;SDS011;6344;49.932;8.308;2022-12-29T03:58:45;2.50;;;2.30;;
12556;SDS011;6344;49.932;8.308;2022-12-29T04:01:13;2.63;;;2.43;;
12556;SDS011;6344;49.932;8.308;2022-12-29T04:03:39;2.40;;;2.20;;
12556;SDS011;6344;49.932;8.308;2022-12-29T04:06:09;2.07;;;1.90;;
12556;SDS011;6344;49.932;8.308;2022-12-29T04:08:36;1.57;;;1.47;;
12556;SDS011;6344;49.932;8.308;2022-12-29T04:11:02;3.30;;;2.50;;
12556;SDS011;6344;49.932;8.308;2022-12-29T04:13:29;2.87;;;2.67;;
12556;SDS011;6344;49.932;8.308;2022-12-29T04:16:00;2.07;;;1.97;;
12556;SDS011;6344;49.932;8.308;2022-12-29T04:18:27;2.40;;;2.20;;
12556;SDS011;6344;49.932;8.308;2022-12-29T04:20:55;3.80;;;2.80;;
12556;SDS011;6344;49.932;8.308;2022-12-29T04:23:30;2.37;;;1.97;;
12556;SDS011;6344;49.932;8.308;2022-12-29T04:25:58;2.40;;;2.20;;
12556;SDS011;6344;49.932;8.308;2022-12-29T04:28:25;1.73;;;1.63;;
12556;SDS011;6344;49.932;8.308;2022-12-29T04:30:52;2.40;;;2.10;;
12556;SDS011;6344;49.932;8.308;2022-12-29T04:33:20;2.53;;;2.10;;
12556;SDS011;6344;49.932;8.308;2022-12-29T04:35:49;2.40;;;2.20;;
12556;SDS011;6344;49.932;8.308;2022-12-29T04:38:18;2.17;;;2.00;;
12556;SDS011;6344;49.932;8.308;2022-12-29T04:40:48;2.83;;;2.50;;
12556;SDS011;6344;49.932;8.308;2022-12-29T04:43:16;3.77;;;2.20;;
12556;SDS011;6344;49.932;8.308;2022-12-29T04:45:46;4.20;;;2.10;;
12556;SDS011;6344;49.932;8.308;2022-12-29T04:48:17;3.20;;;2.27;;
12556;SDS011;6344;49.932;8.308;2022-12-29T04:50:44;3.60;;;3.27;;
12556;SDS011;6344;49.932;8.308;2022-12-29T04:53:13;2.70;;;2.07;;
12556;SDS011;6344;49.932;8.308;2022-12-29T04:55:40;3.10;;;2.80;;
12556;SDS011;6344;49.932;8.308;2022-12-29T04:58:10;4.83;;;2.37;;
12556;SDS011;6344;49.932;8.308;2022-12-29T05:00:39;2.87;;;2.03;;
12556;SDS011;6344;49.932;8.308;2022-12-29T05:03:12;2.93;;;2.10;;
12556;SDS011;6344;49.932;8.308;2022-12-29T05:05:39;4.70;;;2.40;;
12556;SDS011;6344;49.932;8.308;2022-12-29T05:08:08;2.63;;;2.43;;
12556;SDS011;6344;49.932;8.308;2022-12-29T05:10:34;2.60;;;2.40;;
12556;SDS011;6344;49.932;8.308;2022-12-29T05:13:01;3.20;;;3.00;;
12556;SDS011;6344;49.932;8.308;2022-12-29T05:15:29;3.23;;;2.77;;
12556;SDS011;6344;49.932;8.308;2022-12-29T05:17:56;2.50;;;2.30;;
12556;SDS011;6344;49.932;8.308;2022-12-29T05:20:25;4.50;;;2.57;;
12556;SDS011;6344;49.932;8.308;2022-12-29T05:22:52;2.80;;;2.60;;
12556;SDS011;6344;49.932;8.308;2022-12-29T05:25:20;3.80;;;2.63;;
12556;SDS011;6344;49.932;8.308;2022-12-29T05:27:48;2.50;;;2.30;;
12556;SDS011;6344;49.932;8.308;2022-12-29T05:30:15;2.90;;;2.07;;
12556;SDS011;6344;49.932;8.308;2022-12-29T05:32:43;2.37;;;2.10;;
12556;SDS011;6344;49.932;8.308;2022-12-29T05:35:16;3.70;;;2.50;;
12556;SDS011;6344;49.932;8.308;2022-12-29T05:37:42;2.70;;;2.50;;
12556;SDS011;6344;49.932;8.308;2022-12-29T05:40:11;3.00;;;2.60;;
12556;SDS011;6344;49.932;8.308;2022-12-29T05:42:37;3.03;;;2.73;;
12556;SDS011;6344;49.932;8.308;2022-12-29T05:45:05;2.50;;;2.30;;
12556;SDS011;6344;49.932;8.308;2022-12-29T05:47:34;3.33;;;2.60;;
12556;SDS011;6344;49.932;8.308;2022-12-29T05:50:04;2.33;;;2.23;;
12556;SDS011;6344;49.932;8.308;2022-12-29T05:52:31;2.60;;;2.40;;
12556;SDS011;6344;49.932;8.308;2022-12-29T05:54:58;3.30;;;2.40;;
12556;SDS011;6344;49.932;8.308;2022-12-29T05:57:27;2.20;;;2.10;;
12556;SDS011;6344;49.932;8.308;2022-12-29T05:59:58;2.70;;;2.00;;
12556;SDS011;6344;49.932;8.308;2022-12-29T06:02:27;4.27;;;1.70;;
12556;SDS011;6344;49.932;8.308;2022-12-29T06:04:58;2.20;;;2.00;;
12556;SDS011;6344;49.932;8.308;2022-12-29T06:07:26;2.50;;;1.80;;
12556;SDS011;6344;49.932;8.308;2022-12-29T06:09:53;3.77;;;2.30;;
12556;SDS011;6344;49.932;8.308;2022-12-29T06:12:19;5.00;;;2.10;;
12556;SDS011;6344;49.932;8.308;2022-12-29T06:14:49;2.57;;;2.37;;
12556;SDS011;6344;49.932;8.308;2022-12-29T06:17:17;2.63;;;2.20;;
12556;SDS011;6344;49.932;8.308;2022-12-29T06:19:44;2.00;;;1.80;;
12556;SDS011;6344;49.932;8.308;2022-12-29T06:22:11;1.90;;;1.80;;
12556;SDS011;6344;49.932;8.308;2022-12-29T06:24:39;2.63;;;2.10;;
12556;SDS011;6344;49.932;8.308;2022-12-29T06:27:11;2.17;;;1.97;;
12556;SDS011;6344;49.932;8.308;2022-12-29T06:29:42;3.40;;;2.23;;
12556;SDS011;6344;49.932;8.308;2022-12-29T06:32:16;2.30;;;2.03;;
12556;SDS011;6344;49.932;8.308;2022-12-29T06:34:43;2.70;;;2.50;;
12556;SDS011;6344;49.932;8.308;2022-12-29T06:37:11;2.40;;;2.20;;
12556;SDS011;6344;49.932;8.308;2022-12-29T06:39:40;5.90;;;2.93;;
12556;SDS011;6344;49.932;8.308;2022-12-29T06:42:15;2.77;;;2.43;;
12556;SDS011;6344;49.932;8.308;2022-12-29T06:44:41;3.10;;;2.80;;
12556;SDS011;6344;49.932;8.308;2022-12-29T06:47:14;2.70;;;2.50;;
12556;SDS011;6344;49.932;8.308;2022-12-29T06:49:45;3.20;;;3.00;;
12556;SDS011;6344;49.932;8.308;2022-12-29T06:52:12;4.30;;;2.43;;
12556;SDS011;6344;49.932;8.308;2022-12-29T06:54:41;3.67;;;3.07;;
12556;SDS011;6344;49.932;8.308;2022-12-29T06:57:10;4.13;;;2.60;;
12556;SDS011;6344;49.932;8.308;2022-12-29T06:59:36;2.70;;;2.50;;
12556;SDS011;6344;49.932;8.308;2022-12-29T07:02:03;4.10;;;3.30;;
12556;SDS011;6344;49.932;8.308;2022-12-29T07:04:32;3.60;;;3.30;;
12556;SDS011;6344;49.932;8.308;2022-12-29T07:06:58;3.50;;;3.30;;
12556;SDS011;6344;49.932;8.308;2022-12-29T07:09:25;3.30;;;2.57;;
12556;SDS011;6344;49.932;8.308;2022-12-29T07:11:57;2.97;;;2.63;;
12556;SDS011;6344;49.932;8.308;2022-12-29T07:14:24;2.80;;;2.60;;
12556;SDS011;6344;49.932;8.308;2022-12-29T07:16:55;2.40;;;2.20;;
12556;SDS011;6344;49.932;8.308;2022-12-29T07:19:24;3.67;;;2.83;;
12556;SDS011;6344;49.932;8.308;2022-12-29T07:21:54;9.20;;;2.20;;
12556;SDS011;6344;49.932;8.308;2022-12-29T07:24:21;3.17;;;2.50;;
12556;SDS011;6344;49.932;8.308;2022-12-29T07:26:47;4.50;;;2.70;;
12556;SDS011;6344;49.932;8.308;2022-12-29T07:29:18;2.63;;;2.43;;
12556;SDS011;6344;49.932;8.308;2022-12-29T07:31:47;3.80;;;2.70;;
12556;SDS011;6344;49.932;8.308;2022-12-29T07:34:16;3.80;;;3.50;;
12556;SDS011;6344;49.932;8.308;2022-12-29T07:36:43;2.70;;;2.30;;
12556;SDS011;6344;49.932;8.308;2022-12-29T07:39:11;2.60;;;2.40;;
12556;SDS011;6344;49.932;8.308;2022-12-29T07:41:37;2.57;;;2.37;;
12556;SDS011;6344;49.932;8.308;2022-12-29T07:44:08;3.30;;;2.90;;
12556;SDS011;6344;49.932;8.308;2022-12-29T07:46:36;3.63;;;3.33;;
12556;SDS011;6344;49.932;8.308;2022-12-29T07:49:07;3.13;;;2.93;;
12556;SDS011;6344;49.932;8.308;2022-12-29T07:51:33;4.10;;;2.70;;
12556;SDS011;6344;49.932;8.308;2022-12-29T07:54:00;3.53;;;3.13;;
12556;SDS011;6344;49.932;8.308;2022-12-29T07:56:28;2.67;;;2.47;;
12556;SDS011;6344;49.932;8.308;2022-12-29T07:58:57;3.73;;;3.43;;
12556;SDS011;6344;49.932;8.308;2022-12-29T08:01:23;5.83;;;3.60;;
12556;SDS011;6344;49.932;8.308;2022-12-29T08:03:53;3.27;;;3.00;;
12556;SDS011;6344;49.932;8.308;2022-12-29T08:06:20;4.07;;;3.70;;
12556;SDS011;6344;49.932;8.308;2022-12-29T08:08:48;3.07;;;2.87;;
12556;SDS011;6344;49.932;8.308;2022-12-29T08:11:17;3.10;;;2.90;;
12556;SDS011;6344;49.932;8.308;2022-12-29T08:13:46;3.63;;;3.03;;
12556;SDS011;6344;49.932;8.308;2022-12-29T08:16:14;6.57;;;3.90;;
12556;SDS011;6344;49.932;8.308;2022-12-29T08:18:41;3.90;;;2.70;;
12556;SDS011;6344;49.932;8.308;2022-12-29T08:21:09;4.17;;;3.80;;
12556;SDS011;6344;49.932;8.308;2022-12-29T08:23:35;3.03;;;2.77;;
12556;SDS011;6344;49.932;8.308;2022-12-29T08:26:03;2.57;;;2.37;;
12556;SDS011;6344;49.932;8.308;2022-12-29T08:28:33;3.40;;;3.10;;
12556;SDS011;6344;49.932;8.308;2022-12-29T08:31:00;5.23;;;3.50;;
12556;SDS011;6344;49.932;8.308;2022-12-29T08:33:32;4.00;;;3.60;;
12556;SDS011;6344;49.932;8.308;2022-12-29T08:36:00;5.10;;;3.63;;
12556;SDS011;6344;49.932;8.308;2022-12-29T08:38:30;3.17;;;2.87;;
12556;SDS011;6344;49.932;8.308;2022-12-29T08:40:57;3.50;;;3.20;;
12556;SDS011;6344;49.932;8.308;2022-12-29T08:43:26;4.90;;;3.60;;
12556;SDS011;6344;49.932;8.308;2022-12-29T08:45:53;4.70;;;3.63;;
12556;SDS011;6344;49.932;8.308;2022-12-29T08:48:21;4.00;;;3.70;;
12556;SDS011;6344;49.932;8.308;2022-12-29T08:50:48;3.90;;;3.47;;
12556;SDS011;6344;49.932;8.308;2022-12-29T08:53:15;5.43;;;3.10;;
12556;SDS011;6344;49.932;8.308;2022-12-29T08:55:45;3.90;;;3.43;;
12556;SDS011;6344;49.932;8.308;2022-12-29T08:58:15;3.40;;;3.10;;
12556;SDS011;6344;49.932;8.308;2022-12-29T09:00:43;5.43;;;3.27;;
12556;SDS011;6344;49.932;8.308;2022-12-29T09:03:09;3.30;;;2.40;;
12556;SDS011;6344;49.932;8.308;2022-12-29T09:05:40;3.03;;;2.73;;
12556;SDS011;6344;49.932;8.308;2022-12-29T09:08:07;3.43;;;3.03;;
12556;SDS011;6344;49.932;8.308;2022-12-29T09:10:34;3.60;;;3.30;;
12556;SDS011;6344;49.932;8.308;2022-12-29T09:13:02;6.57;;;2.50;;
12556;SDS011;6344;49.932;8.308;2022-12-29T09:15:28;3.53;;;2.33;;
12556;SDS011;6344;49.932;8.308;2022-12-29T09:17:57;5.70;;;3.83;;
12556;SDS011;6344;49.932;8.308;2022-12-29T09:20:24;3.77;;;3.47;;
12556;SDS011;6344;49.932;8.308;2022-12-29T09:22:53;5.50;;;4.67;;
12556;SDS011;6344;49.932;8.308;2022-12-29T09:25:24;4.93;;;4.40;;
12556;SDS011;6344;49.932;8.308;2022-12-29T09:27:51;5.87;;;5.27;;
12556;SDS011;6344;49.932;8.308;2022-12-29T09:30:30;5.33;;;4.70;;
12556;SDS011;6344;49.932;8.308;2022-12-29T09:32:59;9.33;;;5.80;;
12556;SDS011;6344;49.932;8.308;2022-12-29T09:35:25;5.83;;;5.33;;
12556;SDS011;6344;49.932;8.308;2022-12-29T09:37:52;6.23;;;4.87;;
12556;SDS011;6344;49.932;8.308;2022-12-29T09:40:24;6.30;;;5.50;;
12556;SDS011;6344;49.932;8.308;2022-12-29T09:43:11;10.10;;;7.73;;
12556;SDS011;6344;49.932;8.308;2022-12-29T09:45:51;5.60;;;5.10;;
12556;SDS011;6344;49.932;8.308;2022-12-29T09:48:27;6.37;;;5.77;;
12556;SDS011;6344;49.932;8.308;2022-12-29T09:50:58;7.57;;;6.30;;
12556;SDS011;6344;49.932;8.308;2022-12-29T09:53:31;7.40;;;5.60;;
12556;SDS011;6344;49.932;8.308;2022-12-29T09:56:05;8.70;;;6.17;;
12556;SDS011;6344;49.932;8.308;2022-12-29T09:58:42;4.80;;;3.80;;
12556;SDS011;6344;49.932;8.308;2022-12-29T10:01:21;6.83;;;4.00;;
12556;SDS011;6344;49.932;8.308;2022-12-29T10:03:54;3.33;;;2.90;;
12556;SDS011;6344;49.932;8.308;2022-12-29T10:06:29;3.50;;;3.27;;
12556;SDS011;6344;49.932;8.308;2022-12-29T10:09:06;2.57;;;1.97;;
12556;SDS011;6344;49.932;8.308;2022-12-29T10:11:46;2.70;;;2.00;;
12556;SDS011;6344;49.932;8.308;2022-12-29T10:14:27;4.23;;;1.70;;
12556;SDS011;6344;49.932;8.308;2022-12-29T10:17:08;4.77;;;1.60;;
12556;SDS011;6344;49.932;8.308;2022-12-29T10:19:48;2.87;;;1.67;;
12556;SDS011;6344;49.932;8.308;2022-12-29T10:22:29;2.70;;;1.60;;
12556;SDS011;6344;49.932;8.308;2022-12-29T10:25:08;1.67;;;1.53;;
12556;SDS011;6344;49.932;8.308;2022-12-29T10:27:44;3.93;;;1.60;;
12556;SDS011;6344;49.932;8.308;2022-12-29T10:30:14;2.20;;;1.27;;
12556;SDS011;6344;49.932;8.308;2022-12-29T10:32:46;2.10;;;1.50;;
12556;SDS011;6344;49.932;8.308;2022-12-29T10:35:18;1.10;;;0.90;;
12556;SDS011;6344;49.932;8.308;2022-12-29T10:37:48;3.43;;;1.30;;
12556;SDS011;6344;49.932;8.308;2022-12-29T10:40:24;1.47;;;1.33;;
12556;SDS011;6344;49.932;8.308;2022-12-29T10:42:57;1.83;;;1.30;;
12556;SDS011;6344;49.932;8.308;2022-12-29T10:45:26;1.20;;;1.00;;
12556;SDS011;6344;49.932;8.308;2022-12-29T10:47:59;1.80;;;1.27;;
12556;SDS011;6344;49.932;8.308;2022-12-29T10:50:29;1.10;;;1.00;;
12556;SDS011;6344;49.932;8.308;2022-12-29T10:52:58;2.93;;;1.60;;
12556;SDS011;6344;49.932;8.308;2022-12-29T10:55:30;2.13;;;1.30;;
12556;SDS011;6344;49.932;8.308;2022-12-29T10:58:03;3.50;;;1.67;;
12556;SDS011;6344;49.932;8.308;2022-12-29T11:00:33;2.03;;;1.30;;
12556;SDS011;6344;49.932;8.308;2022-12-29T11:05:57;2.77;;;1.67;;
12556;SDS011;6344;49.932;8.308;2022-12-29T11:08:29;3.27;;;1.97;;
12556;SDS011;6344;49.932;8.308;2022-12-29T11:11:00;1.40;;;1.30;;
12556;SDS011;6344;49.932;8.308;2022-12-29T11:13:29;1.70;;;1.53;;
12556;SDS011;6344;49.932;8.308;2022-12-29T11:15:59;1.60;;;1.43;;
12556;SDS011;6344;49.932;8.308;2022-12-29T11:18:33;1.40;;;1.30;;
12556;SDS011;6344;49.932;8.308;2022-12-29T11:21:04;1.93;;;1.47;;
12556;SDS011;6344;49.932;8.308;2022-12-29T11:23:33;1.43;;;1.33;;
12556;SDS011;6344;49.932;8.308;2022-12-29T11:26:11;3.20;;;1.40;;
12556;SDS011;6344;49.932;8.308;2022-12-29T11:29:04;2.93;;;1.80;;
12556;SDS011;6344;49.932;8.308;2022-12-29T11:31:47;1.77;;;1.47;;
12556;SDS011;6344;49.932;8.308;2022-12-29T11:34:21;1.50;;;1.40;;
12556;SDS011;6344;49.932;8.308;2022-12-29T11:36:53;2.57;;;1.67;;
12556;SDS011;6344;49.932;8.308;2022-12-29T11:39:27;1.63;;;1.20;;
12556;SDS011;6344;49.932;8.308;2022-12-29T11:42:01;2.70;;;1.50;;
12556;SDS011;6344;49.932;8.308;2022-12-29T11:44:30;2.43;;;1.57;;
12556;SDS011;6344;49.932;8.308;2022-12-29T11:47:08;2.73;;;1.77;;
12556;SDS011;6344;49.932;8.308;2022-12-29T11:49:39;1.70;;;1.60;;
12556;SDS011;6344;49.932;8.308;2022-12-29T11:52:06;3.67;;;1.70;;
12556;SDS011;6344;49.932;8.308;2022-12-29T11:54:37;2.37;;;1.60;;
12556;SDS011;6344;49.932;8.308;2022-12-29T11:57:10;2.30;;;1.80;;
12556;SDS011;6344;49.932;8.308;2022-12-29T11:59:41;17.00;;;13.03;;
12556;SDS011;6344;49.932;8.308;2022-12-29T12:05:15;11.87;;;8.80;;
12556;SDS011;6344;49.932;8.308;2022-12-29T12:07:50;3.70;;;2.90;;
12556;SDS011;6344;49.932;8.308;2022-12-29T12:10:27;3.43;;;3.20;;
12556;SDS011;6344;49.932;8.308;2022-12-29T12:13:02;2.83;;;2.40;;
12556;SDS011;6344;49.932;8.308;2022-12-29T12:15:34;2.67;;;2.47;;
12556;SDS011;6344;49.932;8.308;2022-12-29T12:18:08;1.83;;;1.47;;
12556;SDS011;6344;49.932;8.308;2022-12-29T12:20:44;1.67;;;1.50;;
12556;SDS011;6344;49.932;8.308;2022-12-29T12:23:14;1.87;;;1.50;;
12556;SDS011;6344;49.932;8.308;2022-12-29T12:25:51;2.57;;;1.60;;
12556;SDS011;6344;49.932;8.308;2022-12-29T12:28:25;1.53;;;1.43;;
12556;SDS011;6344;49.932;8.308;2022-12-29T12:30:59;1.57;;;1.47;;
12556;SDS011;6344;49.932;8.308;2022-12-29T12:33:30;3.20;;;1.53;;
12556;SDS011;6344;49.932;8.308;2022-12-29T12:36:16;2.13;;;1.33;;
12556;SDS011;6344;49.932;8.308;2022-12-29T12:38:55;1.97;;;1.43;;
12556;SDS011;6344;49.932;8.308;2022-12-29T12:41:32;1.83;;;1.63;;
12556;SDS011;6344;49.932;8.308;2022-12-29T12:44:18;2.00;;;1.80;;
12556;SDS011;6344;49.932;8.308;2022-12-29T12:47:00;1.57;;;1.47;;
12556;SDS011;6344;49.932;8.308;2022-12-29T12:49:59;3.63;;;1.50;;
12556;SDS011;6344;49.932;8.308;2022-12-29T12:52:44;1.93;;;1.47;;
12556;SDS011;6344;49.932;8.308;2022-12-29T12:55:31;2.23;;;1.67;;
12556;SDS011;6344;49.932;8.308;2022-12-29T12:58:09;2.90;;;1.20;;
12556;SDS011;6344;49.932;8.308;2022-12-29T13:00:46;3.87;;;1.70;;
12556;SDS011;6344;49.932;8.308;2022-12-29T13:03:25;3.20;;;1.90;;
12556;SDS011;6344;49.932;8.308;2022-12-29T13:06:05;2.77;;;2.03;;
12556;SDS011;6344;49.932;8.308;2022-12-29T13:08:52;4.67;;;2.43;;
12556;SDS011;6344;49.932;8.308;2022-12-29T13:11:29;3.53;;;2.67;;
12556;SDS011;6344;49.932;8.308;2022-12-29T13:14:16;3.73;;;1.50;;
12556;SDS011;6344;49.932;8.308;2022-12-29T13:16:54;2.73;;;1.60;;
12556;SDS011;6344;49.932;8.308;2022-12-29T13:19:33;1.97;;;1.77;;
12556;SDS011;6344;49.932;8.308;2022-12-29T13:22:05;4.20;;;2.00;;
12556;SDS011;6344;49.932;8.308;2022-12-29T13:24:44;1.53;;;1.40;;
12556;SDS011;6344;49.932;8.308;2022-12-29T13:27:21;3.80;;;2.33;;
12556;SDS011;6344;49.932;8.308;2022-12-29T13:29:58;3.40;;;1.90;;
12556;SDS011;6344;49.932;8.308;2022-12-29T13:32:37;2.63;;;1.87;;
12556;SDS011;6344;49.932;8.308;2022-12-29T13:35:19;3.93;;;1.80;;
12556;SDS011;6344;49.932;8.308;2022-12-29T13:38:09;3.10;;;1.83;;
12556;SDS011;6344;49.932;8.308;2022-12-29T13:40:43;3.17;;;1.73;;
12556;SDS011;6344;49.932;8.308;2022-12-29T13:43:13;2.73;;;2.10;;
12556;SDS011;6344;49.932;8.308;2022-12-29T13:45:45;2.53;;;1.67;;
12556;SDS011;6344;49.932;8.308;2022-12-29T13:48:19;3.73;;;1.93;;
12556;SDS011;6344;49.932;8.308;2022-12-29T13:50:50;2.33;;;1.90;;
12556;SDS011;6344;49.932;8.308;2022-12-29T13:53:23;1.97;;;1.67;;
12556;SDS011;6344;49.932;8.308;2022-12-29T13:55:57;3.37;;;1.90;;
12556;SDS011;6344;49.932;8.308;2022-12-29T13:58:31;4.37;;;1.80;;
12556;SDS011;6344;49.932;8.308;2022-12-29T14:01:07;3.13;;;1.80;;
12556;SDS011;6344;49.932;8.308;2022-12-29T14:03:46;5.63;;;1.97;;
12556;SDS011;6344;49.932;8.308;2022-12-29T14:06:27;3.47;;;1.80;;
12556;SDS011;6344;49.932;8.308;2022-12-29T14:09:02;4.20;;;2.43;;
12556;SDS011;6344;49.932;8.308;2022-12-29T14:11:34;3.60;;;1.90;;
12556;SDS011;6344;49.932;8.308;2022-12-29T14:14:10;3.73;;;1.90;;
12556;SDS011;6344;49.932;8.308;2022-12-29T14:16:39;3.70;;;1.70;;
12556;SDS011;6344;49.932;8.308;2022-12-29T14:19:10;2.97;;;2.03;;
12556;SDS011;6344;49.932;8.308;2022-12-29T14:21:41;1.67;;;1.27;;
12556;SDS011;6344;49.932;8.308;2022-12-29T14:24:27;7.00;;;2.00;;
12556;SDS011;6344;49.932;8.308;2022-12-29T14:33:20;4.70;;;1.83;;
12556;SDS011;6344;49.932;8.308;2022-12-29T14:35:53;4.27;;;1.97;;
12556;SDS011;6344;49.932;8.308;2022-12-29T14:38:22;1.97;;;1.77;;
12556;SDS011;6344;49.932;8.308;2022-12-29T14:40:51;2.90;;;1.40;;
12556;SDS011;6344;49.932;8.308;2022-12-29T14:43:23;2.60;;;1.83;;
12556;SDS011;6344;49.932;8.308;2022-12-29T14:45:59;2.03;;;1.50;;
12556;SDS011;6344;49.932;8.308;2022-12-29T14:48:33;4.90;;;1.87;;
12556;SDS011;6344;49.932;8.308;2022-12-29T14:51:16;3.43;;;2.13;;
12556;SDS011;6344;49.932;8.308;2022-12-29T14:53:46;5.63;;;1.47;;
12556;SDS011;6344;49.932;8.308;2022-12-29T14:56:17;3.87;;;1.50;;
12556;SDS011;6344;49.932;8.308;2022-12-29T14:58:52;1.37;;;1.00;;
12556;SDS011;6344;49.932;8.308;2022-12-29T15:01:26;2.23;;;1.57;;
12556;SDS011;6344;49.932;8.308;2022-12-29T15:04:03;3.77;;;1.63;;
12556;SDS011;6344;49.932;8.308;2022-12-29T15:06:39;2.20;;;1.20;;
12556;SDS011;6344;49.932;8.308;2022-12-29T15:09:12;2.10;;;1.40;;
12556;SDS011;6344;49.932;8.308;2022-12-29T15:11:51;3.93;;;2.03;;
12556;SDS011;6344;49.932;8.308;2022-12-29T15:14:31;3.03;;;1.63;;
12556;SDS011;6344;49.932;8.308;2022-12-29T15:17:09;4.60;;;2.77;;
12556;SDS011;6344;49.932;8.308;2022-12-29T15:19:38;3.20;;;2.33;;
12556;SDS011;6344;49.932;8.308;2022-12-29T15:22:05;7.33;;;5.43;;
12556;SDS011;6344;49.932;8.308;2022-12-29T15:28:00;5.77;;;2.47;;
12556;SDS011;6344;49.932;8.308;2022-12-29T15:30:30;4.60;;;2.83;;
12556;SDS011;6344;49.932;8.308;2022-12-29T15:32:59;9.00;;;3.03;;
12556;SDS011;6344;49.932;8.308;2022-12-29T15:35:29;3.13;;;2.53;;
12556;SDS011;6344;49.932;8.308;2022-12-29T15:37:59;3.20;;;2.10;;
12556;SDS011;6344;49.932;8.308;2022-12-29T15:40:38;6.57;;;4.80;;
12556;SDS011;6344;49.932;8.308;2022-12-29T15:45:55;4.73;;;3.20;;
12556;SDS011;6344;49.932;8.308;2022-12-29T15:48:22;4.37;;;2.53;;
12556;SDS011;6344;49.932;8.308;2022-12-29T15:50:51;4.03;;;2.77;;